Time;durP1;ratioP1;P1;durP2;ratioP2;P2;SDS_P1;SDS_P2;PMS_P1;PMS_P2;Temp;Humidity;BMP_temperature;BMP_pressure;BME280_temperature;BME280_humidity;BME280_pressure;Samples;Min_cycle;Max_cycle;Signal;HPM_P1;HPM_P2
2022/04/29 00:04:18;;;;;;;6.05;1.50;;;;;;;19.26;31.86;102863.22;16133466;19;130500;-54
2022/04/29 00:09:39;;;;;;;4.03;1.10;;;;;;;19.25;32.02;102858.72;16134521;19;130664;-55
2022/04/29 00:15:02;;;;;;;2.80;1.17;;;;;;;19.24;32.17;102845.91;16129237;19;129840;-56
2022/04/29 00:20:24;;;;;;;4.20;1.10;;;;;;;19.22;32.12;102842.47;16128841;19;130811;-55
2022/04/29 00:25:46;;;;;;;2.63;1.13;;;;;;;19.19;32.10;102848.41;16133360;19;129845;-56
2022/04/29 00:31:08;;;;;;;3.75;1.20;;;;;;;19.18;32.23;102846.69;16133046;19;129727;-54
2022/04/29 00:36:29;;;;;;;2.70;1.17;;;;;;;19.18;32.24;102847.53;16131383;19;130180;-53
2022/04/29 00:41:51;;;;;;;2.90;1.00;;;;;;;19.16;31.75;102846.88;16133057;19;130659;-54
2022/04/29 00:47:19;;;;;;;1.70;1.00;;;;;;;19.15;32.20;102831.28;16132474;19;129202;-56
2022/04/29 00:52:44;;;;;;;3.25;0.95;;;;;;;19.15;32.23;102824.91;16132911;19;129863;-56
2022/04/29 00:58:09;;;;;;;2.80;0.90;;;;;;;19.13;32.10;102821.47;16131239;19;129926;-53
2022/04/29 01:03:32;;;;;;;2.30;0.90;;;;;;;19.09;32.05;102815.47;16129415;19;129516;-53
2022/04/29 01:08:54;;;;;;;2.72;1.30;;;;;;;19.07;31.81;102810.16;16131973;19;130571;-56
2022/04/29 01:14:15;;;;;;;1.25;0.60;;;;;;;19.06;32.09;102800.09;16125999;19;129530;-51
2022/04/29 01:19:38;;;;;;;2.47;0.70;;;;;;;19.06;32.08;102799.22;16128138;19;131828;-56
2022/04/29 01:25:01;;;;;;;1.48;0.75;;;;;;;19.04;32.02;102805.00;16130769;19;129518;-55
2022/04/29 01:30:23;;;;;;;3.25;1.15;;;;;;;19.02;31.89;102801.56;16128442;19;129579;-54
2022/04/29 01:35:45;;;;;;;2.80;0.98;;;;;;;19.01;31.95;102790.69;16128660;19;129624;-57
2022/04/29 01:41:07;;;;;;;3.17;0.80;;;;;;;19.01;32.09;102791.53;16131108;19;130496;-55
2022/04/29 01:46:29;;;;;;;1.70;0.60;;;;;;;18.99;32.32;102788.09;16145006;19;129774;-56
2022/04/29 01:51:50;;;;;;;1.20;0.75;;;;;;;18.98;32.19;102794.69;16143467;19;129906;-55
2022/04/29 01:57:12;;;;;;;2.35;0.70;;;;;;;18.97;31.90;102781.88;16139459;19;130587;-56
2022/04/29 02:02:34;;;;;;;2.33;0.90;;;;;;;18.95;32.24;102786.81;16140939;19;129422;-57
2022/04/29 02:07:57;;;;;;;2.05;1.05;;;;;;;18.93;32.07;102794.47;16140452;19;129493;-54
2022/04/29 02:13:20;;;;;;;2.45;0.63;;;;;;;18.91;32.21;102788.25;16138435;19;130232;-56
2022/04/29 02:18:42;;;;;;;1.92;1.00;;;;;;;18.88;31.87;102780.34;16140023;19;130628;-56
2022/04/29 02:24:04;;;;;;;2.95;1.00;;;;;;;18.88;32.29;102780.34;16142569;19;129811;-55
2022/04/29 02:29:29;;;;;;;1.52;0.80;;;;;;;18.87;32.30;102767.53;16142351;19;130364;-56
2022/04/29 02:34:51;;;;;;;;;;;;;;;18.81;32.34;102774.75;16139613;19;129437;-56
2022/04/29 02:40:13;;;;;;;3.15;0.93;;;;;;;18.83;31.92;102772.63;16136565;19;130505;-57
2022/04/29 02:45:34;;;;;;;1.52;0.75;;;;;;;18.84;31.91;102770.69;16139738;19;130639;-55
2022/04/29 02:50:56;;;;;;;2.50;0.75;;;;;;;18.81;32.24;102768.34;16137763;19;129739;-57
2022/04/29 02:56:18;;;;;;;3.00;0.82;;;;;;;18.80;32.31;102761.94;16138767;19;129628;-55
2022/04/29 03:01:40;;;;;;;2.47;0.85;;;;;;;18.79;32.32;102776.00;16137515;19;129741;-53
2022/04/29 03:07:02;;;;;;;3.55;0.80;;;;;;;18.79;31.96;102782.41;16138860;19;130715;-56
2022/04/29 03:12:24;;;;;;;3.35;0.80;;;;;;;18.79;32.00;102776.00;16134467;19;129777;-55
2022/04/29 03:23:27;;;;;;;1.73;0.75;;;;;;;18.74;32.34;102769.16;16139120;19;130609;-55
2022/04/29 03:28:49;;;;;;;3.47;0.80;;;;;;;18.72;31.90;102767.66;16137717;19;129685;-57
2022/04/29 03:34:11;;;;;;;5.63;1.00;;;;;;;18.73;31.98;102756.34;16136722;19;129953;-56
2022/04/29 03:39:33;;;;;;;2.00;0.75;;;;;;;18.71;32.38;102758.47;16133155;19;129731;-55
2022/04/29 03:44:54;;;;;;;1.73;0.80;;;;;;;18.70;32.04;102762.31;16136017;19;130087;-56
2022/04/29 03:50:17;;;;;;;1.58;1.00;;;;;;;18.68;32.31;102758.88;16135269;19;131316;-55
2022/04/29 03:55:38;;;;;;;1.33;0.82;;;;;;;18.67;32.31;102759.94;16132953;19;130285;-55
2022/04/29 04:01:00;;;;;;;3.53;0.90;;;;;;;18.67;31.89;102756.28;16127988;19;130285;-55
2022/04/29 04:12:03;;;;;;;1.85;0.73;;;;;;;18.66;32.06;102758.22;16129426;19;129718;-56
2022/04/29 04:17:31;;;;;;;2.28;0.75;;;;;;;18.66;31.89;102758.22;16131628;19;130375;-55
2022/04/29 04:22:53;;;;;;;3.60;0.65;;;;;;;18.64;32.12;102746.47;16134350;19;130031;-55
2022/04/29 04:28:15;;;;;;;2.15;0.88;;;;;;;18.63;32.28;102750.31;16133978;19;129869;-53
2022/04/29 04:33:36;;;;;;;3.97;0.98;;;;;;;18.61;32.25;102744.09;16126507;19;130156;-53
2022/04/29 04:38:58;;;;;;;2.22;0.80;;;;;;;18.61;32.32;102739.44;16129736;19;129189;-57
2022/04/29 04:44:20;;;;;;;3.83;1.00;;;;;;;18.62;32.08;102748.59;16131861;19;130778;-55
2022/04/29 04:49:42;;;;;;;1.50;0.60;;;;;;;18.60;32.25;102742.38;16133111;19;130048;-52
2022/04/29 04:55:05;;;;;;;1.10;0.50;;;;;;;18.58;32.36;102747.31;16131522;19;129094;-56
2022/04/29 05:00:27;;;;;;;1.02;0.43;;;;;;;18.57;31.95;102746.44;16129194;19;129697;-55
2022/04/29 05:05:49;;;;;;;1.92;0.75;;;;;;;18.57;31.96;102745.59;16127064;19;130333;-55
2022/04/29 05:11:11;;;;;;;2.83;0.75;;;;;;;18.57;32.16;102751.13;16128341;19;129378;-54
2022/04/29 05:16:32;;;;;;;3.55;0.85;;;;;;;18.58;32.41;102747.31;16136386;19;129455;-55
2022/04/29 05:21:54;;;;;;;2.55;0.55;;;;;;;18.67;32.33;102756.28;16140814;19;129805;-58
2022/04/29 05:27:16;;;;;;;1.50;0.85;;;;;;;18.81;32.12;102757.25;16145842;19;129429;-57
2022/04/29 05:32:38;;;;;;;1.48;0.40;;;;;;;18.99;31.77;102763.13;16145742;19;129965;-58
2022/04/29 05:38:01;;;;;;;1.52;0.50;;;;;;;19.29;31.84;102765.69;16144029;19;129296;-57
2022/04/29 05:43:23;;;;;;;2.75;0.82;;;;;;;19.60;31.16;102755.97;16144680;19;130282;-58
2022/04/29 05:48:45;;;;;;;4.72;0.80;;;;;;;19.90;31.05;102761.19;16141386;19;130447;-56
2022/04/29 05:54:07;;;;;;;0.82;0.40;;;;;;;20.13;30.98;102771.94;16140083;19;129809;-56
2022/04/29 05:59:30;;;;;;;1.63;0.50;;;;;;;20.26;30.60;102779.44;16140469;19;129361;-56
2022/04/29 06:04:52;;;;;;;1.48;0.40;;;;;;;20.28;30.59;102779.22;16138643;19;130097;-57
2022/04/29 06:10:13;;;;;;;3.90;0.70;;;;;;;20.22;30.81;102782.88;16141758;19;129828;-56
2022/04/29 06:15:35;;;;;;;2.42;0.60;;;;;;;20.16;30.89;102792.03;16137778;19;129513;-56
2022/04/29 06:20:57;;;;;;;1.40;0.50;;;;;;;20.05;30.58;102794.38;16136409;19;129421;-56
2022/04/29 06:26:19;;;;;;;1.85;0.68;;;;;;;19.95;30.83;102786.41;16139882;19;129280;-56
2022/04/29 06:31:41;;;;;;;4.30;0.70;;;;;;;19.87;30.94;102783.81;16144676;19;130501;-57
2022/04/29 06:37:03;;;;;;;3.90;0.77;;;;;;;19.80;31.04;102786.59;16141843;19;130334;-57
2022/04/29 06:42:25;;;;;;;2.13;0.70;;;;;;;19.73;31.44;102793.19;16140942;19;132052;-57
2022/04/29 06:47:47;;;;;;;2.65;0.60;;;;;;;19.67;31.11;102798.53;16144491;19;130165;-58
2022/04/29 06:53:08;;;;;;;2.45;0.70;;;;;;;19.65;31.27;102802.53;16144430;19;129269;-57
2022/04/29 06:58:30;;;;;;;2.67;0.98;;;;;;;19.61;31.85;102807.66;16137261;19;129766;-58
2022/04/29 07:03:52;;;;;;;2.60;0.93;;;;;;;19.66;31.74;102804.25;16142637;19;129445;-56
2022/04/29 07:09:14;;;;;;;4.28;0.70;;;;;;;19.84;31.62;102817.56;16134360;19;129032;-57
2022/04/29 07:14:36;;;;;;;6.60;1.20;;;;;;;20.07;31.34;102822.81;16139123;19;130124;-57
2022/04/29 07:19:58;;;;;;;2.92;1.00;;;;;;;20.32;31.14;102813.00;16139540;19;129673;-57
2022/04/29 07:25:23;;;;;;;1.60;0.80;;;;;;;20.50;31.23;102804.91;16143136;19;129519;-57
2022/04/29 07:30:44;;;;;;;5.13;0.80;;;;;;;20.68;30.90;102807.03;16141502;19;130132;-57
2022/04/29 07:41:46;;;;;;;2.97;0.95;;;;;;;20.92;30.83;102799.13;16137751;19;129999;-58
2022/04/29 07:47:08;;;;;;;4.20;1.30;;;;;;;21.02;30.80;102790.34;16140525;19;130922;-58
2022/04/29 07:52:30;;;;;;;3.47;1.02;;;;;;;21.12;30.58;102806.56;16134199;19;129845;-57
2022/04/29 07:57:53;;;;;;;2.13;1.10;;;;;;;21.22;30.57;102810.63;16137965;19;129403;-56
2022/04/29 08:03:14;;;;;;;3.55;0.80;;;;;;;21.31;30.18;102818.72;16137935;19;130319;-58
2022/04/29 08:08:39;;;;;;;4.57;0.90;;;;;;;21.38;30.35;102816.78;16137447;19;129243;-56
2022/04/29 08:14:01;;;;;;;4.17;0.63;;;;;;;21.46;30.37;102813.75;16133633;19;129591;-57
2022/04/29 08:19:43;;;;;;;3.42;1.02;;;;;;;21.55;30.16;102816.31;16132239;19;129604;-56
2022/04/29 08:25:05;;;;;;;2.97;1.02;;;;;;;21.63;29.76;102813.31;16130514;19;129144;-57
2022/04/29 08:30:30;;;;;;;3.17;1.05;;;;;;;21.67;30.03;102825.69;16136138;19;129631;-58
2022/04/29 08:35:52;;;;;;;3.40;1.10;;;;;;;21.70;29.56;102816.06;16135034;19;128885;-58
2022/04/29 08:41:21;;;;;;;1.92;0.55;;;;;;;21.73;29.74;102816.47;16132514;19;130187;-56
2022/04/29 08:46:44;;;;;;;2.95;0.70;;;;;;;21.73;30.00;102813.69;16133449;19;129097;-57
2022/04/29 08:52:06;;;;;;;3.75;1.05;;;;;;;21.76;29.88;102818.81;16129129;19;129940;-56
2022/04/29 09:03:14;;;;;;;3.15;0.80;;;;;;;21.74;29.41;102826.53;16129571;19;129621;-52
2022/04/29 09:08:41;;;;;;;2.53;0.93;;;;;;;21.67;29.90;102817.34;16134523;19;129681;-53
2022/04/29 09:14:23;;;;;;;1.50;0.82;;;;;;;21.57;29.96;102814.16;16128571;19;129510;-54
2022/04/29 09:19:45;;;;;;;2.10;0.70;;;;;;;21.51;29.73;102815.91;16129252;19;129196;-55
2022/04/29 09:25:08;;;;;;;1.95;0.85;;;;;;;21.51;30.09;102814.00;16135417;19;130578;-58
2022/04/29 09:30:39;;;;;;;2.28;0.70;;;;;;;21.55;29.92;102808.84;16134713;19;129492;-53
2022/04/29 09:36:02;;;;;;;3.08;1.00;;;;;;;21.56;29.58;102799.41;16132037;19;130310;-56
2022/04/29 09:41:24;;;;;;;1.90;1.00;;;;;;;21.57;30.05;102806.69;16127870;19;129334;-53
2022/04/29 09:46:46;;;;;;;2.15;0.77;;;;;;;21.62;30.05;102806.03;16130133;19;131076;-55
2022/04/29 09:52:08;;;;;;;3.05;0.85;;;;;;;21.65;29.61;102791.66;16129328;19;130940;-58
2022/04/29 09:57:30;;;;;;;4.75;1.20;;;;;;;21.71;29.59;102787.97;16127162;19;129186;-57
2022/04/29 10:02:52;;;;;;;1.77;0.98;;;;;;;21.73;29.43;102785.81;16137224;19;129935;-57
2022/04/29 10:08:15;;;;;;;2.30;0.80;;;;;;;21.71;29.36;102779.63;16145550;19;130148;-57
2022/04/29 10:13:40;;;;;;;2.03;0.80;;;;;;;21.64;29.63;102779.66;16139994;19;129944;-57
2022/04/29 10:24:45;;;;;;;1.92;1.10;;;;;;;21.44;30.60;102799.19;16145627;19;128958;-54
2022/04/29 10:30:11;;;;;;;2.70;0.93;;;;;;;21.35;30.57;102786.59;16133132;19;130579;-55
2022/04/29 10:35:39;;;;;;;5.45;1.75;;;;;;;21.24;30.56;102779.78;16142935;19;129683;-57
2022/04/29 10:41:06;;;;;;;3.90;1.50;;;;;;;21.15;31.00;102793.09;16144108;19;128925;-56
2022/04/29 10:46:39;;;;;;;4.88;1.70;;;;;;;21.05;31.03;102789.88;16147784;19;129980;-56
2022/04/29 10:52:02;;;;;;;3.13;1.50;;;;;;;20.94;30.92;102798.91;16144858;19;129705;-56
2022/04/29 10:57:57;;;;;;;7.13;1.83;;;;;;;20.83;31.51;102790.16;16135147;19;129478;-54
2022/04/29 11:03:38;;;;;;;8.25;2.05;;;;;;;20.78;31.44;102787.19;16135134;19;129257;-58
2022/04/29 11:09:00;;;;;;;3.60;1.50;;;;;;;20.69;31.30;102785.63;16146040;19;129510;-57
2022/04/29 11:14:22;;;;;;;6.90;1.70;;;;;;;20.65;31.41;102773.25;16141180;19;129661;-57
2022/04/29 11:19:45;;;;;;;4.47;1.60;;;;;;;20.66;31.00;102763.84;16144847;19;129309;-57
2022/04/29 11:25:07;;;;;;;4.57;1.48;;;;;;;20.70;31.16;102756.75;16146178;19;129675;-56
2022/04/29 11:30:29;;;;;;;4.63;1.48;;;;;;;20.73;31.22;102759.09;16145507;19;129547;-57
2022/04/29 11:36:07;;;;;;;5.47;1.30;;;;;;;20.79;30.99;102757.41;16142571;19;129248;-56
2022/04/29 11:41:29;;;;;;;4.57;1.30;;;;;;;20.88;31.42;102751.41;16137089;19;129801;-56
2022/04/29 11:46:51;;;;;;;2.85;1.40;;;;;;;20.97;31.18;102757.63;16137838;19;129319;-56
2022/04/29 11:52:19;;;;;;;3.28;1.40;;;;;;;21.03;31.09;102755.88;16142434;19;128947;-56
2022/04/29 11:57:46;;;;;;;5.88;1.80;;;;;;;21.09;31.50;102757.78;16140597;19;129505;-57
2022/04/29 12:03:08;;;;;;;3.92;1.70;;;;;;;21.13;31.59;102749.84;16136217;19;129238;-54
2022/04/29 12:08:39;;;;;;;7.47;1.80;;;;;;;21.20;31.37;102759.88;16142280;19;129969;-57
2022/04/29 12:14:15;;;;;;;5.22;1.50;;;;;;;21.28;31.22;102744.03;16138244;19;129562;-55
2022/04/29 12:19:37;;;;;;;7.72;1.92;;;;;;;21.34;31.45;102748.69;16136910;19;130414;-53
2022/04/29 12:25:24;;;;;;;6.00;1.70;;;;;;;21.40;31.41;102750.63;16139069;19;129232;-58
2022/04/29 12:36:55;;;;;;;5.03;1.75;;;;;;;21.48;30.88;102733.66;16134842;19;129631;-57
2022/04/29 12:42:18;;;;;;;3.33;1.40;;;;;;;21.50;31.28;102737.09;16137068;19;129424;-58
2022/04/29 12:47:43;;;;;;;4.40;1.30;;;;;;;21.55;30.92;102736.44;16139604;19;129497;-57
2022/04/29 12:53:12;;;;;;;4.60;1.63;;;;;;;21.57;31.36;102736.19;16138473;19;129877;-57
2022/04/29 12:58:34;;;;;;;2.85;1.35;;;;;;;21.54;31.11;102726.34;16137076;19;129369;-58
2022/04/29 13:03:58;;;;;;;2.63;1.10;;;;;;;21.48;31.29;102728.06;16133023;19;129807;-57
2022/04/29 13:09:20;;;;;;;3.22;1.20;;;;;;;21.39;30.95;102721.06;16137121;19;129270;-58
2022/04/29 13:14:42;;;;;;;2.03;0.88;;;;;;;21.29;31.35;102713.16;16135561;19;129227;-58
2022/04/29 13:20:08;;;;;;;2.75;1.13;;;;;;;21.20;31.48;102711.72;16137149;19;130043;-58
2022/04/29 13:25:30;;;;;;;3.22;1.10;;;;;;;21.13;31.18;102713.66;16138042;19;129351;-58
2022/04/29 13:30:51;;;;;;;2.95;1.02;;;;;;;21.06;31.65;102697.84;16131138;19;128911;-58
2022/04/29 13:36:14;;;;;;;2.30;1.10;;;;;;;21.01;31.38;102694.88;16142100;19;129172;-57
2022/04/29 13:41:36;;;;;;;2.60;1.05;;;;;;;21.00;31.42;102697.88;16151423;19;129540;-58
2022/04/29 13:46:58;;;;;;;2.10;1.00;;;;;;;20.95;31.37;102687.41;16150203;19;129138;-56
2022/04/29 13:58:01;;;;;;;3.17;1.30;;;;;;;20.84;31.59;102674.19;16151140;19;129452;-57
2022/04/29 14:03:23;;;;;;;3.50;1.42;;;;;;;20.80;31.61;102676.53;16146046;19;129408;-57
2022/04/29 14:08:46;;;;;;;1.85;1.00;;;;;;;20.77;31.81;102665.84;16150439;19;129141;-58
2022/04/29 14:14:07;;;;;;;3.15;1.00;;;;;;;20.79;31.57;102660.94;16146489;19;129047;-57
2022/04/29 14:19:29;;;;;;;3.92;0.90;;;;;;;20.84;31.75;102655.56;16147813;19;130015;-57
2022/04/29 14:24:51;;;;;;;3.90;1.00;;;;;;;20.90;31.58;102642.69;16148877;19;130130;-57
2022/04/29 14:30:13;;;;;;;2.53;1.10;;;;;;;20.97;31.22;102651.88;16148602;19;128789;-57
2022/04/29 14:35:35;;;;;;;4.63;1.20;;;;;;;21.04;31.29;102640.72;16148636;19;129705;-58
2022/04/29 14:40:57;;;;;;;4.32;1.10;;;;;;;21.08;31.25;102636.41;16146015;19;129452;-58
2022/04/29 14:46:19;;;;;;;3.05;1.20;;;;;;;21.11;31.44;102622.06;16147587;19;129438;-57
2022/04/29 14:51:43;;;;;;;3.20;0.85;;;;;;;21.14;31.01;102629.09;16148216;19;129417;-58
2022/04/29 14:57:05;;;;;;;2.38;0.90;;;;;;;21.16;31.03;102627.81;16146930;19;128953;-57
2022/04/29 15:02:27;;;;;;;2.15;1.08;;;;;;;21.20;31.16;102629.06;16143452;19;129555;-58
2022/04/29 15:07:49;;;;;;;2.50;0.90;;;;;;;21.22;31.17;102629.69;16145522;19;129484;-58
2022/04/29 15:18:53;;;;;;;3.22;0.93;;;;;;;21.27;31.00;102630.97;16145460;19;129236;-58
2022/04/29 15:24:14;;;;;;;3.15;0.70;;;;;;;21.29;31.12;102623.25;16140715;19;128932;-58
2022/04/29 15:29:36;;;;;;;1.42;0.65;;;;;;;21.29;30.75;102628.81;16145807;19;129399;-57
2022/04/29 15:34:58;;;;;;;3.42;0.85;;;;;;;21.31;31.00;102621.94;16139444;19;129409;-56
2022/04/29 15:40:19;;;;;;;1.77;1.00;;;;;;;21.31;30.99;102619.16;16143363;19;129229;-55
2022/04/29 15:45:43;;;;;;;2.30;0.90;;;;;;;21.32;31.06;102618.09;16143754;19;129253;-58
2022/04/29 15:51:05;;;;;;;2.90;1.08;;;;;;;21.31;30.90;102612.72;16142135;19;129302;-56
2022/04/29 15:56:27;;;;;;;2.88;0.90;;;;;;;21.30;30.61;102622.16;16141868;19;130118;-58
2022/04/29 16:01:49;;;;;;;4.43;1.00;;;;;;;21.30;30.71;102625.81;16140548;19;129112;-57
2022/04/29 16:07:11;;;;;;;1.73;0.73;;;;;;;21.29;30.75;102609.34;16143508;19;129128;-58
2022/04/29 16:12:33;;;;;;;1.23;0.73;;;;;;;21.27;30.73;102614.28;16137152;19;128966;-56
2022/04/29 16:29:17;;;;;;;12.02;3.78;;;;;;;21.09;30.92;102599.16;16139002;19;131095;-51
2022/04/29 16:34:39;;;;;;;7.72;4.18;;;;;;;21.00;30.39;102597.72;16137413;19;129426;-52
2022/04/29 16:40:03;;;;;;;10.77;3.58;;;;;;;20.92;30.35;102597.97;16136489;19;129731;-55
2022/04/29 16:45:26;;;;;;;7.68;2.65;;;;;;;20.87;30.25;102587.50;16139192;19;130172;-56
2022/04/29 16:50:48;;;;;;;9.70;2.70;;;;;;;20.93;30.75;102583.84;16135867;19;129334;-53
2022/04/29 16:56:10;;;;;;;9.77;2.30;;;;;;;20.99;31.00;102576.53;16136303;19;130586;-55
2022/04/29 17:01:32;;;;;;;6.90;1.83;;;;;;;21.01;30.85;102591.06;16135175;19;128979;-52
2022/04/29 17:06:54;;;;;;;4.97;1.88;;;;;;;21.01;30.80;102579.94;16138102;19;129454;-52
2022/04/29 17:12:15;;;;;;;9.05;1.90;;;;;;;21.00;30.99;102598.56;16147849;19;129523;-54
2022/04/29 17:17:37;;;;;;;5.50;1.60;;;;;;;21.05;30.71;102592.31;16146404;19;129038;-55
2022/04/29 17:22:59;;;;;;;8.32;1.67;;;;;;;21.10;30.92;102581.38;16145552;19;132197;-50
2022/04/29 17:28:22;;;;;;;8.40;1.85;;;;;;;21.13;31.47;102582.84;16150393;19;129703;-50
2022/04/29 17:33:44;;;;;;;7.65;1.80;;;;;;;21.16;31.48;102583.28;16146887;19;135095;-52
2022/04/29 17:39:06;;;;;;;11.50;1.85;;;;;;;21.18;31.54;102583.91;16155846;19;129911;-52
2022/04/29 17:44:27;;;;;;;5.95;1.40;;;;;;;21.21;31.49;102585.41;16145462;19;129082;-56
2022/04/29 17:50:16;;;;;;;4.43;1.33;;;;;;;21.21;31.71;102597.38;16150507;19;130033;-51
2022/04/29 17:55:37;;;;;;;6.35;1.67;;;;;;;21.20;31.72;102594.81;16149022;19;130141;-53
2022/04/29 18:01:00;;;;;;;13.15;1.80;;;;;;;21.17;31.32;102590.53;16146885;19;129528;-51
2022/04/29 18:06:21;;;;;;;5.20;1.30;;;;;;;21.15;31.60;102606.63;16143690;19;129651;-53
2022/04/29 18:11:43;;;;;;;7.70;1.10;;;;;;;21.15;31.61;102609.41;16149072;19;129582;-56
2022/04/29 18:17:05;;;;;;;7.43;1.17;;;;;;;21.12;31.72;102611.75;16149491;19;129376;-50
2022/04/29 18:22:27;;;;;;;5.82;1.40;;;;;;;21.08;31.48;102618.88;16146347;19;128935;-50
2022/04/29 18:27:48;;;;;;;2.95;1.30;;;;;;;21.03;32.02;102608.41;16149840;19;129384;-55
2022/04/29 18:33:10;;;;;;;8.50;1.30;;;;;;;20.99;31.76;102621.03;16146550;19;130094;-52
2022/04/29 18:38:32;;;;;;;5.82;1.40;;;;;;;20.93;31.63;102613.56;16146940;19;129809;-52
2022/04/29 18:43:53;;;;;;;4.53;1.70;;;;;;;20.89;32.00;102621.50;16138055;19;128933;-55
2022/04/29 18:49:15;;;;;;;5.18;1.10;;;;;;;20.87;32.04;102621.75;16141780;19;129924;-48
2022/04/29 18:54:37;;;;;;;7.38;1.60;;;;;;;20.83;31.86;102625.19;16145564;19;129609;-55
2022/04/29 18:59:59;;;;;;;10.13;1.35;;;;;;;20.80;32.02;102632.03;16145409;19;129916;-54
2022/04/29 19:05:24;;;;;;;10.93;1.77;;;;;;;20.76;31.88;102636.34;16139761;19;129402;-55
2022/04/29 19:10:46;;;;;;;4.88;1.38;;;;;;;20.73;31.94;102639.50;16147052;19;129951;-57
2022/04/29 19:16:08;;;;;;;9.00;1.70;;;;;;;20.70;32.14;102654.72;16138386;19;129616;-51
2022/04/29 19:21:30;;;;;;;2.95;0.95;;;;;;;20.80;32.28;102661.78;16143882;19;129854;-58
2022/04/29 19:26:52;;;;;;;4.82;1.20;;;;;;;21.08;32.00;102674.53;16140870;19;129382;-52
2022/04/29 19:32:15;;;;;;;13.95;1.20;;;;;;;21.38;31.64;102669.22;16140630;19;128973;-53
2022/04/29 19:37:37;;;;;;;5.55;1.20;;;;;;;21.58;31.48;102687.78;16143522;19;129879;-55
2022/04/29 19:42:59;;;;;;;7.40;1.40;;;;;;;21.65;31.27;102694.19;16139189;19;130018;-55
2022/04/29 19:48:20;;;;;;;9.50;1.50;;;;;;;21.64;31.19;102700.81;16128918;19;129483;-56
2022/04/29 19:53:42;;;;;;;8.48;1.33;;;;;;;21.60;31.15;102708.75;16123785;19;129586;-56
2022/04/29 19:59:13;;;;;;;7.80;1.30;;;;;;;21.54;31.39;102714.38;16134896;19;129879;-55
2022/04/29 20:04:35;;;;;;;5.75;1.70;;;;;;;21.45;31.53;102716.53;16138747;19;129429;-55
2022/04/29 20:09:57;;;;;;;8.25;1.35;;;;;;;21.35;31.13;102725.34;16143257;19;128980;-54
2022/04/29 20:15:19;;;;;;;10.75;1.45;;;;;;;21.28;31.28;102724.53;16138207;19;129050;-54
2022/04/29 20:20:42;;;;;;;9.75;1.52;;;;;;;21.22;31.40;102729.91;16136524;19;129265;-55
2022/04/29 20:26:04;;;;;;;11.18;1.90;;;;;;;21.14;31.20;102740.41;16127823;19;129376;-52
2022/04/29 20:31:25;;;;;;;4.75;1.83;;;;;;;21.08;31.39;102744.09;16133699;19;130804;-49
2022/04/29 20:36:54;;;;;;;6.95;2.25;;;;;;;20.94;31.22;102732.13;16134131;19;129412;-53
2022/04/29 20:47:56;;;;;;;10.90;2.13;;;;;;;20.97;32.31;102751.19;16138759;19;128954;-54
2022/04/29 20:53:18;;;;;;;9.98;2.08;;;;;;;20.99;32.16;102757.38;16137831;19;129080;-51
2022/04/29 20:58:41;;;;;;;13.38;1.75;;;;;;;20.96;32.15;102753.13;16138999;19;129133;-53
2022/04/29 21:04:03;;;;;;;15.90;2.30;;;;;;;20.93;32.12;102758.25;16134044;19;129615;-54
2022/04/29 21:09:25;;;;;;;9.73;1.73;;;;;;;20.89;32.74;102757.81;16136625;19;131839;-52
2022/04/29 21:14:50;;;;;;;18.33;2.25;;;;;;;20.85;32.47;102757.41;16133276;19;132171;-47
2022/04/29 21:20:13;;;;;;;12.85;1.60;;;;;;;20.81;32.51;102767.25;16138074;19;129380;-51
2022/04/29 21:25:35;;;;;;;5.75;1.50;;;;;;;20.78;32.12;102762.16;16132660;19;129503;-54
2022/04/29 21:30:57;;;;;;;5.70;1.40;;;;;;;20.74;32.86;102766.38;16134510;19;129476;-53
2022/04/29 21:36:20;;;;;;;2.85;1.40;;;;;;;20.72;32.91;102768.53;16132621;19;129822;-53
2022/04/29 21:41:42;;;;;;;8.18;2.10;;;;;;;20.67;32.84;102760.00;16131822;19;128876;-52
2022/04/29 21:47:04;;;;;;;7.32;1.65;;;;;;;20.64;32.84;102766.81;16130139;19;129342;-49
2022/04/29 21:52:26;;;;;;;5.20;1.33;;;;;;;20.56;32.70;102762.31;16130654;19;129846;-52
2022/04/29 21:57:47;;;;;;;7.95;1.60;;;;;;;20.50;32.86;102776.22;16142051;19;130186;-52
2022/04/29 22:03:10;;;;;;;10.07;1.48;;;;;;;20.44;32.60;102781.59;16145495;19;129843;-48
2022/04/29 22:08:32;;;;;;;5.97;1.70;;;;;;;20.38;32.47;102781.59;16148525;19;129143;-50
2022/04/29 22:13:54;;;;;;;4.03;1.58;;;;;;;20.32;32.59;102786.06;16143471;19;129570;-54
2022/04/29 22:19:18;;;;;;;2.88;1.30;;;;;;;20.28;32.39;102782.88;16147756;19;129797;-53
2022/04/29 22:24:40;;;;;;;3.42;1.25;;;;;;;20.23;32.08;102776.25;16143433;19;130717;-51
2022/04/29 22:30:06;;;;;;;2.72;1.23;;;;;;;20.18;32.23;102776.88;16146892;19;129197;-52
2022/04/29 22:35:29;;;;;;;4.03;1.15;;;;;;;20.17;31.87;102783.50;16141128;19;130638;-51
2022/04/29 22:40:50;;;;;;;3.67;1.10;;;;;;;20.12;31.92;102784.13;16139199;19;129622;-53
2022/04/29 22:46:12;;;;;;;2.92;1.23;;;;;;;20.09;32.04;102780.91;16135590;19;130970;-51
2022/04/29 22:51:34;;;;;;;2.42;0.93;;;;;;;20.07;31.83;102774.69;16136364;19;130878;-50
2022/04/29 22:57:06;;;;;;;4.93;1.00;;;;;;;20.04;31.78;102780.69;16143693;19;130429;-53
2022/04/29 23:02:29;;;;;;;2.35;0.95;;;;;;;20.02;31.87;102782.84;16137962;19;129652;-51
2022/04/29 23:07:53;;;;;;;2.22;1.00;;;;;;;19.99;32.19;102782.19;16134900;19;130083;-49
2022/04/29 23:13:15;;;;;;;1.63;0.80;;;;;;;19.96;32.04;102782.56;16136241;19;129803;-52
2022/04/29 23:24:20;;;;;;;2.75;0.90;;;;;;;19.90;32.05;102772.31;16138745;19;129698;-51
2022/04/29 23:29:44;;;;;;;2.40;0.93;;;;;;;19.88;31.85;102771.66;16140367;19;130442;-51
2022/04/29 23:35:09;;;;;;;2.75;0.80;;;;;;;19.86;31.80;102767.38;16130649;19;130912;-53
2022/04/29 23:40:33;;;;;;;1.23;0.80;;;;;;;19.83;31.98;102750.06;16136473;19;129946;-50
2022/04/29 23:45:55;;;;;;;1.05;0.70;;;;;;;19.81;32.02;102759.69;16131173;19;130403;-50
2022/04/29 23:51:16;;;;;;;3.17;1.10;;;;;;;19.79;31.98;102761.81;16138437;19;129624;-52
2022/04/29 23:56:40;;;;;;;1.23;0.90;;;;;;;19.78;31.86;102765.66;16132130;19;130077;-52
